sensor_id;sensor_type;location;lat;lon;timestamp;temperature;humidity
53045;DHT22;38930;52.766;6.884;2023-12-20T00:01:32;6.90;99.90
53045;DHT22;38930;52.766;6.884;2023-12-20T00:03:58;5.70;99.90
53045;DHT22;38930;52.766;6.884;2023-12-20T00:06:23;5.70;99.90
53045;DHT22;38930;52.766;6.884;2023-12-20T00:08:49;5.70;99.90
53045;DHT22;38930;52.766;6.884;2023-12-20T00:11:15;5.70;99.90
53045;DHT22;38930;52.766;6.884;2023-12-20T00:13:40;5.70;99.90
53045;DHT22;38930;52.766;6.884;2023-12-20T00:16:06;5.70;99.90
53045;DHT22;38930;52.766;6.884;2023-12-20T00:18:31;5.70;99.90
53045;DHT22;38930;52.766;6.884;2023-12-20T00:20:57;5.80;99.90
53045;DHT22;38930;52.766;6.884;2023-12-20T00:23:23;5.80;99.90
53045;DHT22;38930;52.766;6.884;2023-12-20T00:25:48;5.80;99.90
53045;DHT22;38930;52.766;6.884;2023-12-20T00:28:14;5.80;99.90
53045;DHT22;38930;52.766;6.884;2023-12-20T00:30:40;5.80;99.90
53045;DHT22;38930;52.766;6.884;2023-12-20T00:33:05;5.80;99.90
53045;DHT22;38930;52.766;6.884;2023-12-20T00:35:31;5.70;99.90
53045;DHT22;38930;52.766;6.884;2023-12-20T00:37:57;5.70;99.90
53045;DHT22;38930;52.766;6.884;2023-12-20T00:40:23;5.70;99.90
53045;DHT22;38930;52.766;6.884;2023-12-20T00:42:52;5.60;99.90
53045;DHT22;38930;52.766;6.884;2023-12-20T00:45:18;5.60;99.90
53045;DHT22;38930;52.766;6.884;2023-12-20T00:47:44;5.60;99.90
53045;DHT22;38930;52.766;6.884;2023-12-20T00:50:09;5.50;99.90
53045;DHT22;38930;52.766;6.884;2023-12-20T00:52:35;5.50;99.90
53045;DHT22;38930;52.766;6.884;2023-12-20T00:55:00;5.40;99.90
53045;DHT22;38930;52.766;6.884;2023-12-20T00:57:26;5.40;99.90
53045;DHT22;38930;52.766;6.884;2023-12-20T00:59:51;5.40;99.90
53045;DHT22;38930;52.766;6.884;2023-12-20T01:02:17;5.40;99.90
53045;DHT22;38930;52.766;6.884;2023-12-20T01:04:43;5.40;99.90
53045;DHT22;38930;52.766;6.884;2023-12-20T01:07:09;5.40;99.90
53045;DHT22;38930;52.766;6.884;2023-12-20T01:09:34;5.40;99.90
53045;DHT22;38930;52.766;6.884;2023-12-20T01:12:00;5.40;99.90
53045;DHT22;38930;52.766;6.884;2023-12-20T01:14:25;5.40;99.90
53045;DHT22;38930;52.766;6.884;2023-12-20T01:16:51;5.30;99.90
53045;DHT22;38930;52.766;6.884;2023-12-20T01:19:16;5.30;99.90
53045;DHT22;38930;52.766;6.884;2023-12-20T01:21:42;5.30;99.90
53045;DHT22;38930;52.766;6.884;2023-12-20T01:24:07;5.30;99.90
53045;DHT22;38930;52.766;6.884;2023-12-20T01:26:33;5.30;99.90
53045;DHT22;38930;52.766;6.884;2023-12-20T01:28:59;6.40;99.90
53045;DHT22;38930;52.766;6.884;2023-12-20T01:31:24;5.30;99.90
53045;DHT22;38930;52.766;6.884;2023-12-20T01:33:50;5.30;99.90
53045;DHT22;38930;52.766;6.884;2023-12-20T01:36:15;5.30;99.90
53045;DHT22;38930;52.766;6.884;2023-12-20T01:38:41;5.20;99.90
53045;DHT22;38930;52.766;6.884;2023-12-20T01:41:07;5.20;99.90
53045;DHT22;38930;52.766;6.884;2023-12-20T01:43:32;5.20;99.90
53045;DHT22;38930;52.766;6.884;2023-12-20T01:45:58;5.20;99.90
53045;DHT22;38930;52.766;6.884;2023-12-20T01:48:25;5.20;99.90
53045;DHT22;38930;52.766;6.884;2023-12-20T01:50:51;5.20;99.90
53045;DHT22;38930;52.766;6.884;2023-12-20T01:53:19;5.10;99.90
53045;DHT22;38930;52.766;6.884;2023-12-20T01:55:45;5.10;99.90
53045;DHT22;38930;52.766;6.884;2023-12-20T01:58:14;5.10;99.90
53045;DHT22;38930;52.766;6.884;2023-12-20T02:00:40;5.10;99.90
53045;DHT22;38930;52.766;6.884;2023-12-20T02:03:06;5.60;99.90
53045;DHT22;38930;52.766;6.884;2023-12-20T02:05:33;5.20;99.90
53045;DHT22;38930;52.766;6.884;2023-12-20T02:07:59;5.20;99.90
53045;DHT22;38930;52.766;6.884;2023-12-20T02:10:25;6.20;99.90
53045;DHT22;38930;52.766;6.884;2023-12-20T02:12:51;5.20;99.90
53045;DHT22;38930;52.766;6.884;2023-12-20T02:15:16;5.10;99.90
53045;DHT22;38930;52.766;6.884;2023-12-20T02:17:42;5.60;99.90
53045;DHT22;38930;52.766;6.884;2023-12-20T02:20:09;5.20;99.90
53045;DHT22;38930;52.766;6.884;2023-12-20T02:22:35;5.10;99.90
53045;DHT22;38930;52.766;6.884;2023-12-20T02:25:01;5.20;99.90
53045;DHT22;38930;52.766;6.884;2023-12-20T02:27:27;5.20;99.90
53045;DHT22;38930;52.766;6.884;2023-12-20T02:29:53;5.20;99.90
53045;DHT22;38930;52.766;6.884;2023-12-20T02:32:19;5.20;99.90
53045;DHT22;38930;52.766;6.884;2023-12-20T02:34:47;5.20;99.90
53045;DHT22;38930;52.766;6.884;2023-12-20T02:37:13;5.20;99.90
53045;DHT22;38930;52.766;6.884;2023-12-20T02:39:38;5.30;99.90
53045;DHT22;38930;52.766;6.884;2023-12-20T02:42:04;5.30;99.90
53045;DHT22;38930;52.766;6.884;2023-12-20T02:44:29;5.30;99.90
53045;DHT22;38930;52.766;6.884;2023-12-20T02:46:55;5.30;99.90
53045;DHT22;38930;52.766;6.884;2023-12-20T02:49:21;5.40;99.90
53045;DHT22;38930;52.766;6.884;2023-12-20T02:51:46;5.40;99.90
53045;DHT22;38930;52.766;6.884;2023-12-20T02:54:12;6.00;99.90
53045;DHT22;38930;52.766;6.884;2023-12-20T02:56:38;5.40;99.90
53045;DHT22;38930;52.766;6.884;2023-12-20T02:59:04;5.40;99.90
53045;DHT22;38930;52.766;6.884;2023-12-20T03:01:31;5.40;99.90
53045;DHT22;38930;52.766;6.884;2023-12-20T03:03:57;5.40;99.90
53045;DHT22;38930;52.766;6.884;2023-12-20T03:06:23;5.40;99.90
53045;DHT22;38930;52.766;6.884;2023-12-20T03:08:48;5.50;99.90
53045;DHT22;38930;52.766;6.884;2023-12-20T03:11:14;5.50;99.90
53045;DHT22;38930;52.766;6.884;2023-12-20T03:13:39;5.50;99.90
53045;DHT22;38930;52.766;6.884;2023-12-20T03:16:09;5.50;99.90
53045;DHT22;38930;52.766;6.884;2023-12-20T03:18:35;5.50;99.90
53045;DHT22;38930;52.766;6.884;2023-12-20T03:21:00;5.50;99.90
53045;DHT22;38930;52.766;6.884;2023-12-20T03:23:26;5.50;99.90
53045;DHT22;38930;52.766;6.884;2023-12-20T03:25:52;5.60;99.90
53045;DHT22;38930;52.766;6.884;2023-12-20T03:28:18;5.60;99.90
53045;DHT22;38930;52.766;6.884;2023-12-20T03:30:44;5.60;99.90
53045;DHT22;38930;52.766;6.884;2023-12-20T03:33:10;5.60;99.90
53045;DHT22;38930;52.766;6.884;2023-12-20T03:35:36;5.60;99.90
53045;DHT22;38930;52.766;6.884;2023-12-20T03:38:01;5.60;99.90
53045;DHT22;38930;52.766;6.884;2023-12-20T03:40:27;5.60;99.90
53045;DHT22;38930;52.766;6.884;2023-12-20T03:42:53;5.60;99.90
53045;DHT22;38930;52.766;6.884;2023-12-20T03:45:18;5.60;99.90
53045;DHT22;38930;52.766;6.884;2023-12-20T03:47:44;5.60;99.90
53045;DHT22;38930;52.766;6.884;2023-12-20T03:50:09;7.00;99.90
53045;DHT22;38930;52.766;6.884;2023-12-20T03:52:35;5.50;99.90
53045;DHT22;38930;52.766;6.884;2023-12-20T03:55:00;5.50;99.90
53045;DHT22;38930;52.766;6.884;2023-12-20T03:57:26;5.40;99.90
53045;DHT22;38930;52.766;6.884;2023-12-20T03:59:52;5.40;99.90
53045;DHT22;38930;52.766;6.884;2023-12-20T04:02:17;5.40;99.90
53045;DHT22;38930;52.766;6.884;2023-12-20T04:04:43;5.40;99.90
53045;DHT22;38930;52.766;6.884;2023-12-20T04:07:09;5.40;99.90
53045;DHT22;38930;52.766;6.884;2023-12-20T04:09:34;5.40;99.90
53045;DHT22;38930;52.766;6.884;2023-12-20T04:12:00;5.40;99.90
53045;DHT22;38930;52.766;6.884;2023-12-20T04:14:25;5.50;99.90
53045;DHT22;38930;52.766;6.884;2023-12-20T04:16:51;5.50;99.90
53045;DHT22;38930;52.766;6.884;2023-12-20T04:19:17;5.60;99.90
53045;DHT22;38930;52.766;6.884;2023-12-20T04:21:43;6.10;99.90
53045;DHT22;38930;52.766;6.884;2023-12-20T04:24:08;5.50;99.90
53045;DHT22;38930;52.766;6.884;2023-12-20T04:26:34;5.50;99.90
53045;DHT22;38930;52.766;6.884;2023-12-20T04:28:59;5.60;99.90
53045;DHT22;38930;52.766;6.884;2023-12-20T04:31:25;5.60;99.90
53045;DHT22;38930;52.766;6.884;2023-12-20T04:33:50;5.60;99.90
53045;DHT22;38930;52.766;6.884;2023-12-20T04:36:16;5.60;99.90
53045;DHT22;38930;52.766;6.884;2023-12-20T04:38:42;6.40;99.90
53045;DHT22;38930;52.766;6.884;2023-12-20T04:41:07;5.60;99.90
53045;DHT22;38930;52.766;6.884;2023-12-20T04:43:33;5.60;99.90
53045;DHT22;38930;52.766;6.884;2023-12-20T04:45:59;5.70;99.90
53045;DHT22;38930;52.766;6.884;2023-12-20T04:48:24;5.70;99.90
53045;DHT22;38930;52.766;6.884;2023-12-20T04:50:50;5.70;99.90
53045;DHT22;38930;52.766;6.884;2023-12-20T04:53:15;5.70;99.90
53045;DHT22;38930;52.766;6.884;2023-12-20T04:55:41;5.70;99.90
53045;DHT22;38930;52.766;6.884;2023-12-20T04:58:06;5.70;99.90
53045;DHT22;38930;52.766;6.884;2023-12-20T05:00:32;5.70;99.90
53045;DHT22;38930;52.766;6.884;2023-12-20T05:02:58;5.70;99.90
53045;DHT22;38930;52.766;6.884;2023-12-20T05:05:23;5.70;99.90
53045;DHT22;38930;52.766;6.884;2023-12-20T05:07:49;5.70;99.90
53045;DHT22;38930;52.766;6.884;2023-12-20T05:10:14;5.80;99.90
53045;DHT22;38930;52.766;6.884;2023-12-20T05:12:40;5.80;99.90
53045;DHT22;38930;52.766;6.884;2023-12-20T05:15:06;5.80;99.90
53045;DHT22;38930;52.766;6.884;2023-12-20T05:17:32;5.80;99.90
53045;DHT22;38930;52.766;6.884;2023-12-20T05:19:57;5.90;99.90
53045;DHT22;38930;52.766;6.884;2023-12-20T05:22:23;5.90;99.90
53045;DHT22;38930;52.766;6.884;2023-12-20T05:24:49;6.00;99.90
53045;DHT22;38930;52.766;6.884;2023-12-20T05:27:14;5.90;99.90
53045;DHT22;38930;52.766;6.884;2023-12-20T05:29:40;6.00;99.90
53045;DHT22;38930;52.766;6.884;2023-12-20T05:32:06;5.90;99.90
53045;DHT22;38930;52.766;6.884;2023-12-20T05:34:31;6.00;99.90
53045;DHT22;38930;52.766;6.884;2023-12-20T05:36:57;6.00;99.90
53045;DHT22;38930;52.766;6.884;2023-12-20T05:39:23;6.00;99.90
53045;DHT22;38930;52.766;6.884;2023-12-20T05:41:49;6.20;99.90
53045;DHT22;38930;52.766;6.884;2023-12-20T05:44:14;6.00;99.90
53045;DHT22;38930;52.766;6.884;2023-12-20T05:46:40;6.00;99.90
53045;DHT22;38930;52.766;6.884;2023-12-20T05:49:06;6.10;99.90
53045;DHT22;38930;52.766;6.884;2023-12-20T05:51:32;6.10;99.90
53045;DHT22;38930;52.766;6.884;2023-12-20T05:53:58;6.10;99.90
53045;DHT22;38930;52.766;6.884;2023-12-20T05:56:24;6.10;99.90
53045;DHT22;38930;52.766;6.884;2023-12-20T06:01:16;6.10;99.90
53045;DHT22;38930;52.766;6.884;2023-12-20T06:03:44;6.10;99.90
53045;DHT22;38930;52.766;6.884;2023-12-20T06:06:11;6.10;99.90
53045;DHT22;38930;52.766;6.884;2023-12-20T06:08:38;6.10;99.90
53045;DHT22;38930;52.766;6.884;2023-12-20T06:11:04;6.10;99.90
53045;DHT22;38930;52.766;6.884;2023-12-20T06:13:30;6.10;99.90
53045;DHT22;38930;52.766;6.884;2023-12-20T06:15:56;6.20;99.90
53045;DHT22;38930;52.766;6.884;2023-12-20T06:18:22;6.20;99.90
53045;DHT22;38930;52.766;6.884;2023-12-20T06:20:48;6.70;99.90
53045;DHT22;38930;52.766;6.884;2023-12-20T06:23:14;6.20;99.90
53045;DHT22;38930;52.766;6.884;2023-12-20T06:25:39;7.10;99.90
53045;DHT22;38930;52.766;6.884;2023-12-20T06:28:05;6.20;99.90
53045;DHT22;38930;52.766;6.884;2023-12-20T06:30:31;6.20;99.90
53045;DHT22;38930;52.766;6.884;2023-12-20T06:32:58;6.30;99.90
53045;DHT22;38930;52.766;6.884;2023-12-20T06:35:24;6.30;99.90
53045;DHT22;38930;52.766;6.884;2023-12-20T06:37:49;6.30;99.90
53045;DHT22;38930;52.766;6.884;2023-12-20T06:40:15;6.30;99.90
53045;DHT22;38930;52.766;6.884;2023-12-20T06:42:41;6.40;99.90
53045;DHT22;38930;52.766;6.884;2023-12-20T06:45:07;6.40;99.90
53045;DHT22;38930;52.766;6.884;2023-12-20T06:47:32;6.30;99.90
53045;DHT22;38930;52.766;6.884;2023-12-20T06:49:58;6.40;99.90
53045;DHT22;38930;52.766;6.884;2023-12-20T06:52:24;6.40;99.90
53045;DHT22;38930;52.766;6.884;2023-12-20T06:54:49;6.40;99.90
53045;DHT22;38930;52.766;6.884;2023-12-20T06:57:15;6.40;99.90
53045;DHT22;38930;52.766;6.884;2023-12-20T06:59:41;6.40;99.90
53045;DHT22;38930;52.766;6.884;2023-12-20T07:02:07;6.40;99.90
53045;DHT22;38930;52.766;6.884;2023-12-20T07:04:33;6.50;99.90
53045;DHT22;38930;52.766;6.884;2023-12-20T07:06:59;6.40;99.90
53045;DHT22;38930;52.766;6.884;2023-12-20T07:09:26;6.50;99.90
53045;DHT22;38930;52.766;6.884;2023-12-20T07:11:52;6.50;99.90
53045;DHT22;38930;52.766;6.884;2023-12-20T07:14:18;6.50;99.90
53045;DHT22;38930;52.766;6.884;2023-12-20T07:16:43;6.50;99.90
53045;DHT22;38930;52.766;6.884;2023-12-20T07:19:09;6.50;99.90
53045;DHT22;38930;52.766;6.884;2023-12-20T07:21:35;6.50;99.90
53045;DHT22;38930;52.766;6.884;2023-12-20T07:24:00;6.50;99.90
53045;DHT22;38930;52.766;6.884;2023-12-20T07:26:26;6.50;99.90
53045;DHT22;38930;52.766;6.884;2023-12-20T07:28:51;6.50;99.90
53045;DHT22;38930;52.766;6.884;2023-12-20T07:31:17;6.50;99.90
53045;DHT22;38930;52.766;6.884;2023-12-20T07:33:43;6.60;99.90
53045;DHT22;38930;52.766;6.884;2023-12-20T07:36:09;6.50;99.90
53045;DHT22;38930;52.766;6.884;2023-12-20T07:38:34;6.50;99.90
53045;DHT22;38930;52.766;6.884;2023-12-20T07:41:00;6.60;99.90
53045;DHT22;38930;52.766;6.884;2023-12-20T07:43:26;7.50;99.90
53045;DHT22;38930;52.766;6.884;2023-12-20T07:45:51;6.60;99.90
53045;DHT22;38930;52.766;6.884;2023-12-20T07:48:17;7.40;99.90
53045;DHT22;38930;52.766;6.884;2023-12-20T07:50:42;6.60;99.90
53045;DHT22;38930;52.766;6.884;2023-12-20T07:53:08;6.60;99.90
53045;DHT22;38930;52.766;6.884;2023-12-20T07:55:34;6.60;99.90
53045;DHT22;38930;52.766;6.884;2023-12-20T07:58:00;6.70;99.90
53045;DHT22;38930;52.766;6.884;2023-12-20T08:00:26;6.70;99.90
53045;DHT22;38930;52.766;6.884;2023-12-20T08:02:52;6.70;99.90
53045;DHT22;38930;52.766;6.884;2023-12-20T08:05:18;6.70;99.90
53045;DHT22;38930;52.766;6.884;2023-12-20T08:07:43;6.70;99.90
53045;DHT22;38930;52.766;6.884;2023-12-20T08:10:09;6.70;99.90
53045;DHT22;38930;52.766;6.884;2023-12-20T08:12:35;6.70;99.90
53045;DHT22;38930;52.766;6.884;2023-12-20T08:15:01;6.70;99.90
53045;DHT22;38930;52.766;6.884;2023-12-20T08:17:27;6.70;99.90
53045;DHT22;38930;52.766;6.884;2023-12-20T08:19:53;7.00;99.90
53045;DHT22;38930;52.766;6.884;2023-12-20T08:22:18;6.70;99.90
53045;DHT22;38930;52.766;6.884;2023-12-20T08:24:44;6.70;99.90
53045;DHT22;38930;52.766;6.884;2023-12-20T08:27:09;6.80;99.90
53045;DHT22;38930;52.766;6.884;2023-12-20T08:29:35;6.80;99.90
53045;DHT22;38930;52.766;6.884;2023-12-20T08:32:01;7.10;99.90
53045;DHT22;38930;52.766;6.884;2023-12-20T08:34:27;6.80;99.90
53045;DHT22;38930;52.766;6.884;2023-12-20T08:36:53;6.80;99.90
53045;DHT22;38930;52.766;6.884;2023-12-20T08:39:18;7.30;99.90
53045;DHT22;38930;52.766;6.884;2023-12-20T08:41:44;6.90;99.90
53045;DHT22;38930;52.766;6.884;2023-12-20T08:44:09;6.90;99.90
53045;DHT22;38930;52.766;6.884;2023-12-20T08:46:35;7.90;99.90
53045;DHT22;38930;52.766;6.884;2023-12-20T08:49:01;6.90;99.90
53045;DHT22;38930;52.766;6.884;2023-12-20T08:51:27;7.70;99.90
53045;DHT22;38930;52.766;6.884;2023-12-20T08:53:53;7.00;99.90
53045;DHT22;38930;52.766;6.884;2023-12-20T08:56:19;7.00;99.90
53045;DHT22;38930;52.766;6.884;2023-12-20T08:58:46;7.00;99.90
53045;DHT22;38930;52.766;6.884;2023-12-20T09:01:12;7.30;99.90
53045;DHT22;38930;52.766;6.884;2023-12-20T09:03:39;7.10;99.90
53045;DHT22;38930;52.766;6.884;2023-12-20T09:06:05;7.10;99.90
53045;DHT22;38930;52.766;6.884;2023-12-20T09:08:31;7.10;99.90
53045;DHT22;38930;52.766;6.884;2023-12-20T09:10:59;7.90;99.90
53045;DHT22;38930;52.766;6.884;2023-12-20T09:13:24;7.20;99.90
53045;DHT22;38930;52.766;6.884;2023-12-20T09:16:00;8.20;99.90
53045;DHT22;38930;52.766;6.884;2023-12-20T09:18:25;7.30;99.90
53045;DHT22;38930;52.766;6.884;2023-12-20T09:20:51;7.20;99.90
53045;DHT22;38930;52.766;6.884;2023-12-20T09:23:17;8.30;99.90
53045;DHT22;38930;52.766;6.884;2023-12-20T09:25:43;8.00;99.90
53045;DHT22;38930;52.766;6.884;2023-12-20T09:28:09;7.40;99.90
53045;DHT22;38930;52.766;6.884;2023-12-20T09:30:35;7.30;99.90
53045;DHT22;38930;52.766;6.884;2023-12-20T09:33:05;7.30;99.90
53045;DHT22;38930;52.766;6.884;2023-12-20T09:35:32;7.80;99.90
53045;DHT22;38930;52.766;6.884;2023-12-20T09:37:57;8.30;99.90
53045;DHT22;38930;52.766;6.884;2023-12-20T09:40:26;7.50;99.90
53045;DHT22;38930;52.766;6.884;2023-12-20T09:42:58;7.50;99.90
53045;DHT22;38930;52.766;6.884;2023-12-20T09:45:26;7.80;99.90
53045;DHT22;38930;52.766;6.884;2023-12-20T09:47:53;7.50;99.90
53045;DHT22;38930;52.766;6.884;2023-12-20T09:50:22;7.60;99.90
53045;DHT22;38930;52.766;6.884;2023-12-20T09:52:52;7.60;99.90
53045;DHT22;38930;52.766;6.884;2023-12-20T09:55:19;7.70;99.90
53045;DHT22;38930;52.766;6.884;2023-12-20T09:57:46;7.70;99.90
53045;DHT22;38930;52.766;6.884;2023-12-20T10:00:12;7.70;99.90
53045;DHT22;38930;52.766;6.884;2023-12-20T10:02:42;7.80;99.90
53045;DHT22;38930;52.766;6.884;2023-12-20T10:05:16;8.50;99.90
53045;DHT22;38930;52.766;6.884;2023-12-20T10:07:45;7.70;99.90
53045;DHT22;38930;52.766;6.884;2023-12-20T10:10:12;7.60;99.90
53045;DHT22;38930;52.766;6.884;2023-12-20T10:12:38;7.40;99.90
53045;DHT22;38930;52.766;6.884;2023-12-20T10:15:05;7.30;99.90
53045;DHT22;38930;52.766;6.884;2023-12-20T10:17:31;7.10;99.90
53045;DHT22;38930;52.766;6.884;2023-12-20T10:19:57;7.00;99.90
53045;DHT22;38930;52.766;6.884;2023-12-20T10:22:24;6.80;99.90
53045;DHT22;38930;52.766;6.884;2023-12-20T10:24:49;6.70;99.90
53045;DHT22;38930;52.766;6.884;2023-12-20T10:27:18;7.20;99.90
53045;DHT22;38930;52.766;6.884;2023-12-20T10:29:45;6.70;99.90
53045;DHT22;38930;52.766;6.884;2023-12-20T10:32:27;6.60;99.90
53045;DHT22;38930;52.766;6.884;2023-12-20T10:34:53;6.50;99.90
53045;DHT22;38930;52.766;6.884;2023-12-20T10:37:20;6.50;99.90
53045;DHT22;38930;52.766;6.884;2023-12-20T10:39:53;6.60;99.90
53045;DHT22;38930;52.766;6.884;2023-12-20T10:42:22;6.40;99.90
53045;DHT22;38930;52.766;6.884;2023-12-20T10:44:49;6.40;99.90
53045;DHT22;38930;52.766;6.884;2023-12-20T10:47:15;6.80;99.90
53045;DHT22;38930;52.766;6.884;2023-12-20T10:49:41;6.50;99.90
53045;DHT22;38930;52.766;6.884;2023-12-20T10:52:07;6.40;99.90
53045;DHT22;38930;52.766;6.884;2023-12-20T10:54:34;6.40;99.90
53045;DHT22;38930;52.766;6.884;2023-12-20T10:57:00;6.40;99.90
53045;DHT22;38930;52.766;6.884;2023-12-20T10:59:29;6.40;99.90
53045;DHT22;38930;52.766;6.884;2023-12-20T11:01:59;6.40;99.90
53045;DHT22;38930;52.766;6.884;2023-12-20T11:04:56;6.40;99.90
53045;DHT22;38930;52.766;6.884;2023-12-20T11:10:12;6.50;99.90
53045;DHT22;38930;52.766;6.884;2023-12-20T11:12:57;6.50;99.90
53045;DHT22;38930;52.766;6.884;2023-12-20T11:15:26;6.50;99.90
53045;DHT22;38930;52.766;6.884;2023-12-20T11:17:55;6.50;99.90
53045;DHT22;38930;52.766;6.884;2023-12-20T11:20:23;6.60;99.90
53045;DHT22;38930;52.766;6.884;2023-12-20T11:22:54;6.60;99.90
53045;DHT22;38930;52.766;6.884;2023-12-20T11:25:20;6.60;99.90
53045;DHT22;38930;52.766;6.884;2023-12-20T11:28:09;6.80;99.90
53045;DHT22;38930;52.766;6.884;2023-12-20T11:30:53;6.60;99.90
53045;DHT22;38930;52.766;6.884;2023-12-20T11:33:29;6.60;99.90
53045;DHT22;38930;52.766;6.884;2023-12-20T11:35:59;6.60;99.90
53045;DHT22;38930;52.766;6.884;2023-12-20T11:38:25;6.70;99.90
53045;DHT22;38930;52.766;6.884;2023-12-20T11:40:54;7.70;99.90
53045;DHT22;38930;52.766;6.884;2023-12-20T11:43:35;6.70;99.90
53045;DHT22;38930;52.766;6.884;2023-12-20T11:46:08;6.70;99.90
53045;DHT22;38930;52.766;6.884;2023-12-20T11:48:39;6.80;99.90
53045;DHT22;38930;52.766;6.884;2023-12-20T11:51:12;7.40;99.90
53045;DHT22;38930;52.766;6.884;2023-12-20T11:53:38;7.40;99.90
53045;DHT22;38930;52.766;6.884;2023-12-20T11:56:06;7.40;99.90
53045;DHT22;38930;52.766;6.884;2023-12-20T11:58:33;6.80;99.90
53045;DHT22;38930;52.766;6.884;2023-12-20T12:00:59;7.50;99.90
53045;DHT22;38930;52.766;6.884;2023-12-20T12:03:24;6.90;99.90
53045;DHT22;38930;52.766;6.884;2023-12-20T12:05:50;6.90;99.90
53045;DHT22;38930;52.766;6.884;2023-12-20T12:08:16;6.90;99.90
53045;DHT22;38930;52.766;6.884;2023-12-20T12:10:43;6.90;99.90
53045;DHT22;38930;52.766;6.884;2023-12-20T12:13:09;6.90;99.90
53045;DHT22;38930;52.766;6.884;2023-12-20T12:15:36;7.70;99.90
53045;DHT22;38930;52.766;6.884;2023-12-20T12:18:02;7.00;99.90
53045;DHT22;38930;52.766;6.884;2023-12-20T12:20:27;7.00;99.90
53045;DHT22;38930;52.766;6.884;2023-12-20T12:23:04;7.00;99.90
53045;DHT22;38930;52.766;6.884;2023-12-20T12:25:30;7.70;99.90
53045;DHT22;38930;52.766;6.884;2023-12-20T12:27:57;7.60;99.90
53045;DHT22;38930;52.766;6.884;2023-12-20T12:30:24;7.10;99.90
53045;DHT22;38930;52.766;6.884;2023-12-20T12:32:51;7.10;99.90
53045;DHT22;38930;52.766;6.884;2023-12-20T12:35:17;7.10;99.90
53045;DHT22;38930;52.766;6.884;2023-12-20T12:37:43;7.90;99.90
53045;DHT22;38930;52.766;6.884;2023-12-20T12:40:16;7.30;99.90
53045;DHT22;38930;52.766;6.884;2023-12-20T12:42:44;8.10;99.90
53045;DHT22;38930;52.766;6.884;2023-12-20T12:45:10;7.10;99.90
53045;DHT22;38930;52.766;6.884;2023-12-20T12:47:39;7.10;99.90
53045;DHT22;38930;52.766;6.884;2023-12-20T12:50:05;7.10;99.90
53045;DHT22;38930;52.766;6.884;2023-12-20T12:52:31;7.10;99.90
53045;DHT22;38930;52.766;6.884;2023-12-20T12:54:57;7.00;99.90
53045;DHT22;38930;52.766;6.884;2023-12-20T12:57:23;7.00;99.90
53045;DHT22;38930;52.766;6.884;2023-12-20T12:59:50;7.80;99.90
53045;DHT22;38930;52.766;6.884;2023-12-20T13:02:15;7.00;99.90
53045;DHT22;38930;52.766;6.884;2023-12-20T13:04:42;7.20;99.90
53045;DHT22;38930;52.766;6.884;2023-12-20T13:07:09;7.70;99.90
53045;DHT22;38930;52.766;6.884;2023-12-20T13:09:38;6.90;99.90
53045;DHT22;38930;52.766;6.884;2023-12-20T13:12:05;7.30;99.90
53045;DHT22;38930;52.766;6.884;2023-12-20T13:14:35;6.90;99.90
53045;DHT22;38930;52.766;6.884;2023-12-20T13:17:03;6.80;99.90
53045;DHT22;38930;52.766;6.884;2023-12-20T13:19:29;6.80;99.90
53045;DHT22;38930;52.766;6.884;2023-12-20T13:21:55;7.50;99.90
53045;DHT22;38930;52.766;6.884;2023-12-20T13:24:21;6.70;99.90
53045;DHT22;38930;52.766;6.884;2023-12-20T13:26:47;6.70;99.90
53045;DHT22;38930;52.766;6.884;2023-12-20T13:29:12;6.60;99.90
53045;DHT22;38930;52.766;6.884;2023-12-20T13:31:38;6.60;99.90
53045;DHT22;38930;52.766;6.884;2023-12-20T13:34:05;6.60;99.90
53045;DHT22;38930;52.766;6.884;2023-12-20T13:36:30;6.50;99.90
53045;DHT22;38930;52.766;6.884;2023-12-20T13:38:56;6.50;99.90
53045;DHT22;38930;52.766;6.884;2023-12-20T13:41:22;6.50;99.90
53045;DHT22;38930;52.766;6.884;2023-12-20T13:43:47;6.50;99.90
53045;DHT22;38930;52.766;6.884;2023-12-20T13:46:13;6.40;99.90
53045;DHT22;38930;52.766;6.884;2023-12-20T13:48:39;6.40;99.90
53045;DHT22;38930;52.766;6.884;2023-12-20T13:51:05;6.40;99.90
53045;DHT22;38930;52.766;6.884;2023-12-20T13:53:31;6.40;99.90
53045;DHT22;38930;52.766;6.884;2023-12-20T13:55:57;6.40;99.90
53045;DHT22;38930;52.766;6.884;2023-12-20T13:58:23;6.40;99.90
53045;DHT22;38930;52.766;6.884;2023-12-20T14:00:49;6.40;99.90
53045;DHT22;38930;52.766;6.884;2023-12-20T14:03:14;6.30;99.90
53045;DHT22;38930;52.766;6.884;2023-12-20T14:05:40;6.30;99.90
53045;DHT22;38930;52.766;6.884;2023-12-20T14:08:06;6.30;99.90
53045;DHT22;38930;52.766;6.884;2023-12-20T14:10:32;6.30;99.90
53045;DHT22;38930;52.766;6.884;2023-12-20T14:12:57;6.30;99.90
53045;DHT22;38930;52.766;6.884;2023-12-20T14:15:23;6.30;99.90
53045;DHT22;38930;52.766;6.884;2023-12-20T14:17:50;6.30;99.90
53045;DHT22;38930;52.766;6.884;2023-12-20T14:20:16;7.30;99.90
53045;DHT22;38930;52.766;6.884;2023-12-20T14:22:43;6.60;99.90
53045;DHT22;38930;52.766;6.884;2023-12-20T14:25:13;6.20;99.90
53045;DHT22;38930;52.766;6.884;2023-12-20T14:27:39;6.20;99.90
53045;DHT22;38930;52.766;6.884;2023-12-20T14:30:05;6.30;99.90
53045;DHT22;38930;52.766;6.884;2023-12-20T14:32:35;6.30;99.90
53045;DHT22;38930;52.766;6.884;2023-12-20T14:35:05;6.30;99.90
53045;DHT22;38930;52.766;6.884;2023-12-20T14:37:31;6.30;99.90
53045;DHT22;38930;52.766;6.884;2023-12-20T14:39:57;6.30;99.90
53045;DHT22;38930;52.766;6.884;2023-12-20T14:42:23;6.30;99.90
53045;DHT22;38930;52.766;6.884;2023-12-20T14:44:48;6.30;99.90
53045;DHT22;38930;52.766;6.884;2023-12-20T14:47:14;6.30;99.90
53045;DHT22;38930;52.766;6.884;2023-12-20T14:49:41;6.30;99.90
53045;DHT22;38930;52.766;6.884;2023-12-20T14:52:07;6.30;99.90
53045;DHT22;38930;52.766;6.884;2023-12-20T14:54:33;6.30;99.90
53045;DHT22;38930;52.766;6.884;2023-12-20T14:56:59;6.30;99.90
53045;DHT22;38930;52.766;6.884;2023-12-20T14:59:25;6.30;99.90
53045;DHT22;38930;52.766;6.884;2023-12-20T15:01:50;6.30;99.90
53045;DHT22;38930;52.766;6.884;2023-12-20T15:04:16;6.30;99.90
53045;DHT22;38930;52.766;6.884;2023-12-20T15:06:42;6.30;99.90
53045;DHT22;38930;52.766;6.884;2023-12-20T15:09:08;6.20;99.90
53045;DHT22;38930;52.766;6.884;2023-12-20T15:11:34;6.30;99.90
53045;DHT22;38930;52.766;6.884;2023-12-20T15:14:01;6.20;99.90
53045;DHT22;38930;52.766;6.884;2023-12-20T15:16:26;6.30;99.90
53045;DHT22;38930;52.766;6.884;2023-12-20T15:18:52;6.20;99.90
53045;DHT22;38930;52.766;6.884;2023-12-20T15:21:21;6.20;99.90
53045;DHT22;38930;52.766;6.884;2023-12-20T15:23:55;6.20;99.90
53045;DHT22;38930;52.766;6.884;2023-12-20T15:26:32;6.20;99.90
53045;DHT22;38930;52.766;6.884;2023-12-20T15:28:57;6.30;99.90
53045;DHT22;38930;52.766;6.884;2023-12-20T15:31:23;6.30;99.90
53045;DHT22;38930;52.766;6.884;2023-12-20T15:33:52;6.30;99.90
53045;DHT22;38930;52.766;6.884;2023-12-20T15:36:17;6.30;99.90
53045;DHT22;38930;52.766;6.884;2023-12-20T15:38:43;6.40;99.90
53045;DHT22;38930;52.766;6.884;2023-12-20T15:41:08;6.30;99.90
53045;DHT22;38930;52.766;6.884;2023-12-20T15:43:34;6.30;99.90
53045;DHT22;38930;52.766;6.884;2023-12-20T15:46:01;6.30;99.90